Latest Weather Observations for Forrest

IDW60801

Issued at 8:32 am WST Thursday 2 July 2015 (issued every 30 minutes, with the page automatically refreshed every 10 minutes)

About weather observations | Map of weather stations | Latest weather observations for WA | Other Formats
Station Details ID: 011052 Name: FORREST Lat: -30.85 Lon: 128.11 Height: 159.0 m
Data from the previous 72 hours. | See also: Recent months at Forrest
Date/Time
WST
Temp
°C
App
Temp
°C
Dew
Point
Rel
Hum
%
Delta-T
°C
Wind Press
QNH
hPa
Press
MSL
hPa
Rain
since 9 am
mm
Dir
 
Spd
km/h
Gust
km/h
Spd
kts
Gust
kts
02/06:30am 3.9 0.4 1.4 84 1.0 NE 9 11 5 6 1029.5 - 0.0
02/05:30am 4.5 1.1 1.9 83 1.0 NE 9 9 5 5 1029.0 - 0.0
02/05:00am 4.1 0.3 1.6 84 1.0 NNE 11 11 6 6 1028.6 - 0.0
02/04:30am 4.2 0.4 1.9 85 0.9 NE 11 11 6 6 1028.6 - 0.0
02/04:00am 4.1 0.7 1.8 85 0.9 NE 9 11 5 6 1028.4 - 0.0
02/03:30am 4.2 0.4 1.6 83 1.0 ENE 11 13 6 7 1028.4 - 0.0
02/03:00am 4.9 1.2 2.1 82 1.1 ENE 11 13 6 7 1028.6 1028.8 0.0
02/02:30am 5.4 2.1 2.6 82 1.2 ENE 9 11 5 6 1028.7 - 0.0
02/02:00am 5.5 2.2 2.3 80 1.3 NE 9 11 5 6 1028.6 - 0.0
02/01:30am 6.2 3.0 2.8 79 1.4 NE 9 11 5 6 1028.7 - 0.0
02/01:00am 5.9 2.6 2.7 80 1.3 NE 9 13 5 7 1028.6 - 0.0
02/12:30am 6.0 2.4 2.8 80 1.3 NE 11 11 6 6 1028.6 - 0.0
 
Date/Time
WST
Temp
°C
App
Temp
°C
Dew
Point
Rel
Hum
%
Delta-T
°C
Wind Press
QNH
hPa
Press
MSL
hPa
Rain
since 9 am
mm
Dir
 
Spd
km/h
Gust
km/h
Spd
kts
Gust
kts
01/11:30pm 6.8 2.8 2.9 76 1.6 ENE 13 15 7 8 1028.7 - 0.0
01/11:00pm 6.9 3.2 2.6 74 1.8 ENE 11 11 6 6 1028.7 - 0.0
01/10:30pm 7.6 4.0 3.1 73 1.9 E 11 13 6 7 1028.8 - 0.0
01/10:00pm 7.7 4.5 2.8 71 2.1 E 9 11 5 6 1029.0 - 0.0
01/09:30pm 8.0 5.2 2.9 70 2.2 ESE 7 9 4 5 1029.0 - 0.0
01/08:30pm 10.4 5.7 3.4 62 3.1 ESE 17 20 9 11 1028.7 - 0.0
01/08:00pm 9.6 5.6 3.1 64 2.8 ESE 13 15 7 8 1028.8 - 0.0
01/07:30pm 10.1 6.1 2.9 61 3.1 SE 13 15 7 8 1028.7 - 0.0
01/07:00pm 11.6 7.4 3.6 58 3.6 SSE 15 19 8 10 1028.7 - 0.0
01/06:30pm 12.0 8.1 3.5 56 3.8 SSE 13 15 7 8 1028.3 - 0.0
01/05:30pm 14.1 9.8 3.3 48 4.9 SSE 15 19 8 10 1027.5 - 0.0
01/05:00pm 16.3 12.4 3.4 42 6.0 SSE 13 15 7 8 1027.2 - 0.0
01/04:30pm 17.1 13.7 3.8 41 6.2 SSE 11 13 6 7 1026.8 - 0.0
01/04:00pm 19.1 15.9 3.3 35 7.5 SSE 9 13 5 7 1026.6 - 0.0
01/03:30pm 19.7 16.6 3.4 34 7.7 SSE 9 15 5 8 1026.7 - 0.0
01/03:00pm 20.0 17.2 3.3 33 7.9 SSE 7 13 4 7 1026.7 1026.8 0.0
01/02:30pm 20.3 17.2 3.5 33 8.0 SW 9 11 5 6 1026.7 - 0.0
01/02:20pm 21.0 15.1 3.7 32 8.4 SW 24 106 13 57 1026.8 - 0.0
01/02:19pm 21.0 3.1 3.7 32 8.4 NE 87 106 47 57 1026.8 - 0.0
01/02:17pm 21.0 -0.2 3.2 31 8.5 NE 104 106 56 57 1026.8 - 0.0
01/02:16pm 21.1 0.7 3.8 32 8.4 NNW 100 106 54 57 1026.8 - 0.0
01/02:15pm 21.0 1.0 3.7 32 8.4 NW 98 104 53 56 1026.8 - 0.0
01/02:04pm 20.5 15.4 3.3 32 8.2 W 19 104 10 56 1026.7 - 0.0
01/02:03pm 20.5 3.9 3.3 32 8.2 W 80 104 43 56 1026.7 - 0.0
01/02:02pm 20.5 -0.7 3.3 32 8.2 W 104 104 56 56 1026.6 - 0.0
01/02:01pm 20.7 10.9 3.4 32 8.3 WNW 44 104 24 56 1026.6 - 0.0
01/02:00pm 21.0 16.8 3.7 32 8.4 WNW 15 104 8 56 1026.6 - 0.0
01/01:56pm 20.8 18.3 3.5 32 8.3 WSW 6 106 3 57 1026.6 - 0.0
01/01:54pm 20.5 6.3 3.3 32 8.2 W 67 106 36 57 1026.6 - 0.0
01/01:50pm 20.5 10.9 3.3 32 8.2 W 43 106 23 57 1026.6 - 0.0
01/01:45pm 20.9 17.8 3.6 32 8.3 NW 9 106 5 57 1026.6 - 0.0
01/01:44pm 20.7 4.5 3.4 32 8.3 ENE 78 106 42 57 1026.5 - 0.0
01/01:41pm 20.6 2.0 3.8 33 8.1 E 91 106 49 57 1026.5 - 0.0
01/01:30pm 20.2 17.0 3.0 32 8.1 E 9 106 5 57 1026.5 - 0.0
01/01:24pm 21.6 17.0 3.8 31 8.6 NE 17 106 9 57 1026.6 - 0.0
01/01:23pm 21.4 5.6 4.0 32 8.5 N 76 106 41 57 1026.6 - 0.0
01/01:22pm 21.3 0.2 4.0 32 8.4 N 104 106 56 57 1026.6 - 0.0
01/01:21pm 21.2 6.2 3.9 32 8.4 N 72 104 39 56 1026.6 - 0.0
01/01:00pm 20.9 17.5 4.0 33 8.2 N 11 17 6 9 1026.6 - 0.0
01/12:45pm 20.7 17.7 3.9 33 8.1 NE 9 106 5 57 1026.8 - 0.0
01/12:43pm 20.2 10.0 3.4 33 8.0 E 46 106 25 57 1026.8 - 0.0
01/12:41pm 20.6 17.9 3.8 33 8.1 ENE 7 106 4 57 1026.9 - 0.0
01/12:40pm 20.5 8.3 3.7 33 8.1 NNE 57 106 31 57 1026.9 - 0.0
01/12:38pm 20.5 4.7 3.7 33 8.1 N 76 106 41 57 1026.9 - 0.0
01/12:30pm 20.2 17.4 3.4 33 8.0 N 7 102 4 55 1027.0 - 0.0
01/12:28pm 20.4 10.6 3.6 33 8.1 NNE 44 104 24 56 1027.1 - 0.0
01/12:21pm 20.5 15.6 4.1 34 7.9 NW 19 104 10 56 1027.2 - 0.0
01/12:19pm 20.2 6.6 4.3 35 7.7 W 65 104 35 56 1027.3 - 0.0
01/12:00pm 21.4 18.5 4.5 33 8.3 NW 9 104 5 56 1027.3 1027.5 0.0
01/11:57am 20.6 13.8 5.0 36 7.7 WSW 30 104 16 56 1027.3 - 0.0
01/11:30am 19.6 16.7 4.9 38 7.2 N 9 15 5 8 1027.8 - 0.0
01/11:00am 18.6 14.9 4.4 39 6.8 N 13 17 7 9 1028.3 - 0.0
01/10:30am 17.6 13.7 5.2 44 6.0 NNE 15 20 8 11 1028.7 - 0.0
01/10:00am 16.8 11.9 5.1 46 5.6 NNE 20 24 11 13 1029.0 - 0.0
01/09:30am 15.9 11.7 5.5 50 5.0 NNE 17 20 9 11 1029.3 - 0.0
01/09:00am 13.7 10.6 5.6 58 3.8 NNE 11 15 6 8 1030.0 1030.2 0.0
01/08:30am 11.1 8.9 6.0 71 2.4 NNE 7 100 4 54 1030.0 - 0.0
01/08:24am 10.4 8.4 6.2 75 2.0 NNE 6 102 3 55 1030.0 - 0.0
01/08:15am 8.8 -11.2 5.7 81 1.4 NNE 100 102 54 55 1030.0 - 0.0
01/08:00am 7.8 5.5 4.7 81 1.4 NE 6 7 3 4 1029.8 - 0.0
01/07:30am 6.9 4.7 5.5 91 0.6 NE 6 9 3 5 1029.6 - 0.0
01/07:00am 4.6 2.0 4.2 97 0.2 NE 7 9 4 5 1029.5 - 0.0
01/06:30am 3.0 -0.7 2.6 97 0.2 NNE 11 13 6 7 1028.9 - 0.0
01/06:00am 3.0 -0.7 2.4 96 0.2 NE 11 13 6 7 1028.6 1028.8 0.0
01/05:30am 4.0 0.9 3.4 96 0.2 NE 9 11 5 6 1028.7 - 0.0
01/05:00am 4.2 1.5 3.5 95 0.3 NE 7 9 4 5 1028.7 - 0.0
01/04:30am 4.5 1.8 3.6 94 0.4 NNE 7 9 4 5 1028.6 - 0.0
01/04:00am 4.5 1.0 3.5 93 0.4 NE 11 11 6 6 1028.5 - 0.0
01/03:30am 4.7 1.3 3.8 94 0.4 NE 11 11 6 6 1028.4 - 0.0
01/03:00am 4.2 0.6 3.2 93 0.4 NNE 11 11 6 6 1028.4 1028.6 0.0
01/02:30am 4.0 0.4 2.8 92 0.5 NE 11 13 6 7 1028.5 - 0.0
01/02:00am 4.6 0.7 3.3 91 0.5 NE 13 13 7 7 1028.9 - 0.0
01/01:30am 5.0 1.5 3.5 90 0.6 NE 11 13 6 7 1029.1 - 0.0
01/01:00am 5.4 2.4 3.9 90 0.6 NE 9 11 5 6 1028.9 - 0.0
01/12:30am 5.2 2.1 3.4 88 0.8 NE 9 11 5 6 1028.7 - 0.0
01/12:00am 5.4 1.9 3.4 87 0.8 ENE 11 13 6 7 1028.6 1028.8 0.0
 
Date/Time
WST
Temp
°C
App
Temp
°C
Dew
Point
Rel
Hum
%
Delta-T
°C
Wind Press
QNH
hPa
Press
MSL
hPa
Rain
since 9 am
mm
Dir
 
Spd
km/h
Gust
km/h
Spd
kts
Gust
kts
30/11:30pm 5.3 1.7 3.0 85 1.0 ENE 11 13 6 7 1028.7 - 0.0
30/11:00pm 5.9 1.9 3.1 82 1.2 ENE 13 15 7 8 1028.9 - 0.0
30/10:30pm 6.7 2.8 3.3 79 1.4 E 13 13 7 7 1028.9 - 0.0
30/10:00pm 7.4 3.5 3.5 76 1.7 E 13 15 7 8 1028.7 - 0.0
30/09:30pm 8.3 3.3 3.8 73 2.0 ENE 19 20 10 11 1028.6 - 0.0
30/09:00pm 9.3 4.4 3.9 69 2.4 E 19 20 10 11 1028.6 1028.7 0.0
30/08:30pm 8.1 3.8 3.4 72 2.0 E 15 17 8 9 1028.9 - 0.0
30/08:00pm 8.0 4.8 2.9 70 2.2 E 9 11 5 6 1028.7 - 0.0
30/07:30pm 9.3 5.8 3.3 66 2.6 E 11 13 6 7 1028.7 - 0.0
30/07:00pm 10.4 6.3 4.1 65 2.8 ESE 15 17 8 9 1028.7 - 0.0
30/06:30pm 11.9 7.8 4.2 59 3.5 ESE 15 17 8 9 1028.4 - 0.0
30/06:00pm 11.9 8.5 3.9 58 3.6 ESE 11 15 6 8 1028.1 1028.2 0.0
30/05:30pm 12.8 9.4 4.0 55 4.0 ESE 11 13 6 7 1028.1 - 0.0
30/05:00pm 13.8 10.8 3.9 51 4.5 E 9 11 5 6 1027.6 - 0.0
30/04:30pm 16.0 13.3 3.8 44 5.7 E 7 9 4 5 1027.5 - 0.0
30/04:00pm 17.9 15.1 3.4 38 6.8 E 7 9 4 5 1027.4 - 0.0
30/03:57pm 18.1 15.3 3.2 37 7.0 E 7 102 4 55 1027.4 - 0.0
30/03:51pm 18.2 9.7 2.9 36 7.1 ENE 37 102 20 55 1027.4 - 0.0
30/03:49pm 18.4 -2.5 3.1 36 7.2 NNE 102 102 55 55 1027.4 - 0.0
30/03:47pm 18.6 1.4 3.3 36 7.2 NW 83 102 45 55 1027.3 - 0.0
30/03:45pm 18.7 0.0 3.3 36 7.3 NW 91 102 49 55 1027.3 - 0.0
30/03:30pm 18.8 16.0 3.4 36 7.3 NNW 7 11 4 6 1027.3 - 0.0
30/03:02pm 19.7 13.0 3.8 35 7.6 N 28 104 15 56 1027.4 - 0.0
30/03:00pm 19.6 -1.2 3.7 35 7.5 ENE 102 104 55 56 1027.4 1027.5 0.0
30/02:56pm 19.6 -1.1 4.1 36 7.5 ENE 102 104 55 56 1027.4 - 0.0
30/02:55pm 19.4 9.7 4.0 36 7.4 ENE 44 104 24 56 1027.3 - 0.0
30/02:52pm 19.1 12.8 3.7 36 7.3 ENE 26 104 14 56 1027.3 - 0.0
30/02:51pm 19.1 4.4 3.7 36 7.3 N 70 104 38 56 1027.3 - 0.0
30/02:50pm 19.2 -1.5 3.8 36 7.4 N 102 104 55 56 1027.3 - 0.0
30/02:49pm 19.1 3.3 3.7 36 7.3 NW 76 104 41 56 1027.3 - 0.0
30/02:46pm 19.5 12.2 4.4 37 7.3 SW 32 102 17 55 1027.3 - 0.0
30/02:30pm 18.9 16.2 3.9 37 7.2 E 7 52 4 28 1027.3 - 0.0
30/02:13pm 19.1 14.0 4.1 37 7.2 E 20 104 11 56 1027.4 - 0.0
30/02:12pm 19.0 6.5 4.0 37 7.2 E 59 104 32 56 1027.4 - 0.0
30/02:07pm 18.9 10.8 3.5 36 7.3 SSW 35 104 19 56 1027.4 - 0.0
30/02:05pm 19.0 -1.7 4.0 37 7.2 NW 102 104 55 56 1027.4 - 0.0
30/02:04pm 19.1 8.3 4.1 37 7.2 NW 50 104 27 56 1027.4 - 0.0
30/02:00pm 19.0 16.0 4.0 37 7.2 NNE 9 13 5 7 1027.4 - 0.0
30/01:30pm 18.8 15.7 3.8 37 7.1 W 9 17 5 9 1027.4 - 0.0
30/01:19pm 19.1 15.7 4.1 37 7.2 NNW 11 102 6 55 1027.5 - 0.0
30/01:18pm 19.1 3.0 4.1 37 7.2 E 78 102 42 55 1027.5 - 0.0
30/01:16pm 18.8 -0.9 3.4 36 7.3 E 96 102 52 55 1027.6 - 0.0
30/01:15pm 19.0 8.5 3.6 36 7.3 E 48 102 26 55 1027.6 - 0.0
30/01:00pm 19.1 16.5 4.1 37 7.2 N 7 102 4 55 1027.7 - 0.0
30/12:57pm 19.0 11.9 3.6 36 7.3 NNE 30 104 16 56 1027.7 - 0.0
30/12:55pm 19.2 -1.2 3.8 36 7.4 N 100 104 54 56 1027.7 - 0.0
30/12:54pm 19.1 4.7 4.1 37 7.2 NNW 69 104 37 56 1027.8 - 0.0
30/12:52pm 18.7 16.2 3.7 37 7.1 N 6 104 3 56 1027.8 - 0.0
30/12:51pm 18.9 4.5 3.9 37 7.2 NNE 69 104 37 56 1027.8 - 0.0
30/12:50pm 18.9 -1.4 3.9 37 7.2 NE 100 104 54 56 1027.8 - 0.0
30/12:30pm 18.8 15.7 3.8 37 7.1 NE 9 15 5 8 1028.3 - 0.0
30/12:01pm 18.8 14.7 4.6 39 6.9 ENE 15 104 8 56 1028.9 - 0.0
30/12:00pm 18.3 5.0 4.1 39 6.7 NE 63 104 34 56 1029.0 1029.1 0.0
30/11:59am 18.2 1.7 4.0 39 6.8 NNE 80 104 43 56 1029.0 - 0.0
30/11:30am 17.5 13.7 3.8 40 6.5 NNE 13 17 7 9 1029.3 - 0.0
30/11:00am 17.1 13.0 4.4 43 6.0 NNE 15 20 8 11 1029.8 - 0.0
30/10:30am 16.0 12.6 5.9 51 4.9 NNE 13 20 7 11 1030.1 - 0.0
30/10:00am 15.2 11.2 6.7 57 4.2 NE 17 20 9 11 1030.3 - 0.0
30/09:30am 13.9 9.8 7.7 66 3.1 NNE 19 24 10 13 1030.5 - 0.0
30/09:00am 12.6 8.5 7.7 72 2.4 NE 19 22 10 12 1030.8 1030.9 0.0
30/08:30am 10.2 6.6 6.9 80 1.6 NNE 15 19 8 10 1030.9 - 0.0
30/08:00am 6.5 4.2 5.9 96 0.3 NNE 7 11 4 6 1030.6 - 0.0
30/07:30am 4.4 1.8 4.1 98 0.1 NNE 7 15 4 8 1030.5 - 0.0
30/07:00am 2.3 -0.5 2.2 99 0.0 NNE 6 7 3 4 1030.3 - 0.0
30/06:30am 1.7 -1.4 1.4 98 0.1 NNE 7 9 4 5 1029.9 - 0.0
30/06:00am 2.1 -0.9 1.8 98 0.1 NNE 7 7 4 4 1029.5 1029.6 0.0
30/05:30am 1.5 -1.6 1.2 98 0.1 NNE 7 7 4 4 1029.4 - 0.0
30/05:00am 2.3 -1.1 2.0 98 0.1 NNE 9 9 5 5 1029.3 - 0.0
30/04:30am 2.5 -0.5 2.2 98 0.1 NNE 7 7 4 4 1029.2 - 0.0
30/04:00am 3.1 0.2 2.7 97 0.2 NNE 7 9 4 5 1029.0 - 0.0
30/03:30am 3.5 0.7 3.1 97 0.2 NNE 7 9 4 5 1028.9 - 0.0
30/03:00am 3.9 0.8 3.5 97 0.2 NE 9 9 5 5 1028.9 1029.0 0.0
30/02:30am 3.5 -0.1 3.1 97 0.2 NNE 11 13 6 7 1028.8 - 0.0
30/02:00am 3.5 -0.1 2.9 96 0.2 NE 11 13 6 7 1028.7 - 0.0
30/01:30am 3.6 0.4 3.0 96 0.2 NE 9 9 5 5 1028.8 - 0.0
30/01:00am 4.0 0.1 3.3 95 0.3 ENE 13 13 7 7 1028.8 - 0.0
30/12:30am 3.9 0.7 3.0 94 0.4 ENE 9 11 5 6 1028.9 - 0.0
30/12:00am 4.5 0.6 3.5 93 0.4 ENE 13 13 7 7 1029.2 1029.3 0.0
 
Date/Time
WST
Temp
°C
App
Temp
°C
Dew
Point
Rel
Hum
%
Delta-T
°C
Wind Press
QNH
hPa
Press
MSL
hPa
Rain
since 9 am
mm
Dir
 
Spd
km/h
Gust
km/h
Spd
kts
Gust
kts
29/11:30pm 4.3 0.7 3.0 91 0.5 E 11 13 6 7 1029.3 - 0.0
29/11:00pm 4.9 1.0 3.4 90 0.6 E 13 13 7 7 1029.6 - 0.0
29/10:30pm 5.0 1.8 3.0 87 0.8 E 9 11 5 6 1029.7 - 0.0
29/10:00pm 6.1 2.7 3.9 86 0.9 E 11 13 6 7 1029.9 - 0.0
29/09:30pm 7.5 3.5 4.8 83 1.2 ESE 15 19 8 10 1029.8 - 0.0
29/09:00pm 8.1 3.7 4.7 79 1.5 ESE 17 19 9 10 1029.7 1029.8 0.0
29/08:30pm 8.6 3.7 4.2 74 1.9 SE 19 20 10 11 1029.4 - 0.0
29/08:00pm 9.2 3.9 3.0 65 2.7 ESE 20 24 11 13 1029.2 - 0.0
29/07:30pm 10.1 5.2 1.7 56 3.5 ESE 17 20 9 11 1029.2 - 0.0
29/07:00pm 9.5 4.6 1.7 58 3.3 ESE 17 19 9 10 1029.2 - 0.0
29/06:30pm 9.7 4.7 1.6 57 3.4 ESE 17 19 9 10 1029.2 - 0.0
29/06:00pm 10.9 6.3 1.4 52 4.0 ESE 15 17 8 9 1029.0 1029.1 0.0
29/05:30pm 11.2 7.3 1.2 50 4.2 ESE 11 13 6 7 1028.8 - 0.0
29/05:00pm 13.0 9.1 1.0 44 5.1 ESE 11 13 6 7 1028.5 - 0.0
29/04:30pm 15.2 11.7 1.0 38 6.2 E 9 13 5 7 1028.2 - 0.0
29/04:00pm 17.0 13.8 0.6 33 7.2 ESE 7 11 4 6 1028.2 - 0.0
29/03:30pm 18.1 14.9 0.7 31 7.7 ENE 7 11 4 6 1028.4 - 0.0
29/03:15pm 18.2 13.8 0.4 30 7.9 E 13 104 7 56 1028.4 - 0.0
29/03:03pm 17.9 -3.8 0.6 31 7.7 SSE 104 104 56 56 1028.4 - 0.0
29/03:02pm 18.0 0.3 0.6 31 7.7 SSE 83 104 45 56 1028.3 - 0.0
29/03:01pm 17.9 9.9 0.1 30 7.8 SSE 32 104 17 56 1028.3 - 0.0
29/03:00pm 17.8 12.7 0.5 31 7.6 SSE 17 104 9 56 1028.3 1028.4 0.0
29/02:59pm 17.7 1.0 0.4 31 7.6 ESE 78 104 42 56 1028.3 - 0.0
29/02:58pm 17.9 -3.8 0.6 31 7.7 E 104 104 56 56 1028.3 - 0.0
29/02:57pm 17.8 1.4 0.0 30 7.8 E 76 104 41 56 1028.3 - 0.0
29/02:30pm 17.8 14.2 0.9 32 7.5 ESE 9 13 5 7 1028.1 - 0.0
29/02:00pm 17.6 13.6 0.7 32 7.5 ESE 11 102 6 55 1028.2 - 0.0
29/01:30pm 18.1 14.3 1.6 33 7.5 ENE 11 17 6 9 1028.2 - 0.0
29/01:08pm 18.6 15.6 2.0 33 7.6 N 7 104 4 56 1028.4 - 0.0
29/01:07pm 18.3 6.7 1.8 33 7.5 NNE 52 104 28 56 1028.4 - 0.0
29/01:06pm 18.0 2.9 1.5 33 7.4 NE 70 104 38 56 1028.4 - 0.0
29/01:00pm 17.9 14.5 1.8 34 7.3 ENE 9 17 5 9 1028.5 - 0.0
29/12:30pm 18.0 14.7 2.3 35 7.2 N 9 102 5 55 1029.0 - 0.0
29/12:25pm 18.0 13.6 2.7 36 7.1 NNE 15 102 8 55 1029.0 - 0.0
29/12:24pm 17.7 4.9 2.5 36 7.0 NNE 59 102 32 55 1029.0 - 0.0
29/12:23pm 17.6 -3.5 2.0 35 7.1 NNW 102 102 55 55 1029.0 - 0.0
29/12:22pm 17.8 7.9 2.5 36 7.0 SW 44 102 24 55 1029.0 - 0.0
29/12:21pm 17.9 13.1 2.6 36 7.1 SSW 17 102 9 55 1029.0 - 0.0
29/12:20pm 17.8 5.4 2.5 36 7.0 ENE 57 102 31 55 1029.0 - 0.0
29/12:19pm 17.5 0.2 2.7 37 6.8 NE 83 102 45 55 1029.1 - 0.0
29/12:00pm 17.6 13.2 2.8 37 6.8 ENE 15 20 8 11 1029.3 1029.4 0.0
29/11:30am 17.0 12.6 2.6 38 6.6 NE 15 20 8 11 1029.9 - 0.0
29/11:00am 16.2 12.5 4.6 46 5.5 ENE 13 20 7 11 1030.5 - 0.0
29/10:30am 15.2 10.8 4.6 49 5.0 ENE 17 22 9 12 1030.8 - 0.0
29/10:00am 14.1 9.9 5.5 56 4.1 ENE 17 22 9 12 1031.1 - 0.0
29/09:30am 13.1 8.6 6.2 63 3.3 ENE 19 24 10 13 1031.2 - 0.0
29/09:00am 11.5 7.2 7.0 74 2.1 ENE 19 20 10 11 1031.4 1031.4 0.0

Other Formats:

Comma delimited format used in spreadsheet applications
http://www.bom.gov.au/fwo/IDW60801/IDW60801.95646.axf

JavaScript Object Notation format (JSON) in row-major order
http://www.bom.gov.au/fwo/IDW60801/IDW60801.95646.json